sensor_id;sensor_type;location;lat;lon;timestamp;pressure;altitude;pressure_sealevel;temperature;humidity
57885;BME280;43703;51.060;-0.086;2024-02-16T00:00:20;99215.32;;;12.06;100.00
57885;BME280;43703;51.060;-0.086;2024-02-16T00:02:46;99221.17;;;12.53;100.00
57885;BME280;43703;51.060;-0.086;2024-02-16T00:05:12;99217.88;;;12.27;100.00
57885;BME280;43703;51.060;-0.086;2024-02-16T00:07:37;99213.10;;;12.38;100.00
57885;BME280;43703;51.060;-0.086;2024-02-16T00:10:03;99204.80;;;12.11;100.00
57885;BME280;43703;51.060;-0.086;2024-02-16T00:12:29;99204.74;;;12.36;100.00
57885;BME280;43703;51.060;-0.086;2024-02-16T00:14:54;99201.82;;;12.61;100.00
57885;BME280;43703;51.060;-0.086;2024-02-16T00:17:20;99195.96;;;11.95;100.00
57885;BME280;43703;51.060;-0.086;2024-02-16T00:19:46;99193.36;;;12.58;100.00
57885;BME280;43703;51.060;-0.086;2024-02-16T00:22:12;99193.73;;;12.46;100.00
57885;BME280;43703;51.060;-0.086;2024-02-16T00:24:37;99190.62;;;12.50;100.00
57885;BME280;43703;51.060;-0.086;2024-02-16T00:27:03;99195.72;;;12.44;100.00
57885;BME280;43703;51.060;-0.086;2024-02-16T00:29:28;99199.63;;;12.23;100.00
57885;BME280;43703;51.060;-0.086;2024-02-16T00:31:54;99197.55;;;12.20;100.00
57885;BME280;43703;51.060;-0.086;2024-02-16T00:34:19;99201.49;;;12.30;100.00
57885;BME280;43703;51.060;-0.086;2024-02-16T00:36:45;99199.06;;;12.26;100.00
57885;BME280;43703;51.060;-0.086;2024-02-16T00:39:11;99196.89;;;12.36;100.00
57885;BME280;43703;51.060;-0.086;2024-02-16T00:41:36;99197.52;;;12.19;100.00
57885;BME280;43703;51.060;-0.086;2024-02-16T00:44:02;99197.25;;;12.33;100.00
57885;BME280;43703;51.060;-0.086;2024-02-16T00:46:28;99196.31;;;12.89;100.00
57885;BME280;43703;51.060;-0.086;2024-02-16T00:48:54;99201.00;;;12.42;100.00
57885;BME280;43703;51.060;-0.086;2024-02-16T00:51:20;99195.32;;;12.39;100.00
57885;BME280;43703;51.060;-0.086;2024-02-16T00:53:46;99195.49;;;12.48;100.00
57885;BME280;43703;51.060;-0.086;2024-02-16T00:56:12;99194.60;;;12.70;100.00
57885;BME280;43703;51.060;-0.086;2024-02-16T00:58:41;99196.20;;;12.41;100.00
57885;BME280;43703;51.060;-0.086;2024-02-16T01:01:04;99201.40;;;12.88;100.00
57885;BME280;43703;51.060;-0.086;2024-02-16T01:03:29;99209.45;;;12.70;100.00
57885;BME280;43703;51.060;-0.086;2024-02-16T01:05:56;99213.13;;;12.69;100.00
57885;BME280;43703;51.060;-0.086;2024-02-16T01:08:20;99210.02;;;12.79;100.00
57885;BME280;43703;51.060;-0.086;2024-02-16T01:10:46;99211.33;;;12.75;100.00
57885;BME280;43703;51.060;-0.086;2024-02-16T01:13:12;99210.97;;;12.99;100.00
57885;BME280;43703;51.060;-0.086;2024-02-16T01:15:38;99207.75;;;12.76;100.00
57885;BME280;43703;51.060;-0.086;2024-02-16T01:18:04;99207.58;;;12.69;100.00
57885;BME280;43703;51.060;-0.086;2024-02-16T01:20:29;99202.64;;;12.96;100.00
57885;BME280;43703;51.060;-0.086;2024-02-16T01:22:55;99208.46;;;12.70;100.00
57885;BME280;43703;51.060;-0.086;2024-02-16T01:25:21;99209.60;;;12.82;100.00
57885;BME280;43703;51.060;-0.086;2024-02-16T01:27:47;99209.76;;;12.73;100.00
57885;BME280;43703;51.060;-0.086;2024-02-16T01:30:14;99214.52;;;12.71;100.00
57885;BME280;43703;51.060;-0.086;2024-02-16T01:32:38;99212.06;;;12.90;100.00
57885;BME280;43703;51.060;-0.086;2024-02-16T01:35:05;99205.79;;;12.67;100.00
57885;BME280;43703;51.060;-0.086;2024-02-16T01:37:30;99213.89;;;12.62;100.00
57885;BME280;43703;51.060;-0.086;2024-02-16T01:39:55;99222.44;;;12.80;100.00
57885;BME280;43703;51.060;-0.086;2024-02-16T01:42:21;99219.26;;;13.00;100.00
57885;BME280;43703;51.060;-0.086;2024-02-16T01:44:47;99215.93;;;12.70;100.00
57885;BME280;43703;51.060;-0.086;2024-02-16T01:47:13;99213.10;;;12.88;100.00
57885;BME280;43703;51.060;-0.086;2024-02-16T01:49:38;99218.91;;;13.30;100.00
57885;BME280;43703;51.060;-0.086;2024-02-16T01:52:04;99225.01;;;13.26;100.00
57885;BME280;43703;51.060;-0.086;2024-02-16T01:54:29;99226.27;;;12.90;100.00
57885;BME280;43703;51.060;-0.086;2024-02-16T01:56:54;99230.48;;;12.91;100.00
57885;BME280;43703;51.060;-0.086;2024-02-16T01:59:19;99233.31;;;12.97;100.00
57885;BME280;43703;51.060;-0.086;2024-02-16T02:01:45;99241.60;;;13.03;100.00
57885;BME280;43703;51.060;-0.086;2024-02-16T02:04:11;99244.50;;;13.18;100.00
57885;BME280;43703;51.060;-0.086;2024-02-16T02:06:36;99248.61;;;13.01;100.00
57885;BME280;43703;51.060;-0.086;2024-02-16T02:09:02;99247.53;;;13.12;100.00
57885;BME280;43703;51.060;-0.086;2024-02-16T02:11:28;99249.72;;;13.14;100.00
57885;BME280;43703;51.060;-0.086;2024-02-16T02:13:54;99256.89;;;12.70;100.00
57885;BME280;43703;51.060;-0.086;2024-02-16T02:16:21;99263.93;;;12.57;100.00
57885;BME280;43703;51.060;-0.086;2024-02-16T02:18:45;99266.46;;;13.19;100.00
57885;BME280;43703;51.060;-0.086;2024-02-16T02:21:11;99265.91;;;12.99;100.00
57885;BME280;43703;51.060;-0.086;2024-02-16T02:23:37;99266.40;;;12.62;100.00
57885;BME280;43703;51.060;-0.086;2024-02-16T02:26:03;99270.72;;;12.87;100.00
57885;BME280;43703;51.060;-0.086;2024-02-16T02:28:29;99264.21;;;12.61;100.00
57885;BME280;43703;51.060;-0.086;2024-02-16T02:30:54;99266.93;;;12.80;100.00
57885;BME280;43703;51.060;-0.086;2024-02-16T02:33:21;99269.18;;;12.51;100.00
57885;BME280;43703;51.060;-0.086;2024-02-16T02:35:51;99273.97;;;12.81;100.00
57885;BME280;43703;51.060;-0.086;2024-02-16T02:38:12;99271.85;;;12.88;100.00
57885;BME280;43703;51.060;-0.086;2024-02-16T02:40:37;99268.63;;;12.99;100.00
57885;BME280;43703;51.060;-0.086;2024-02-16T02:43:03;99273.52;;;12.89;100.00
57885;BME280;43703;51.060;-0.086;2024-02-16T02:45:28;99278.69;;;13.00;100.00
57885;BME280;43703;51.060;-0.086;2024-02-16T02:47:54;99281.84;;;12.95;100.00
57885;BME280;43703;51.060;-0.086;2024-02-16T02:50:19;99288.75;;;12.94;100.00
57885;BME280;43703;51.060;-0.086;2024-02-16T02:52:44;99291.28;;;12.76;100.00
57885;BME280;43703;51.060;-0.086;2024-02-16T02:55:10;99289.84;;;12.84;100.00
57885;BME280;43703;51.060;-0.086;2024-02-16T02:57:36;99288.43;;;12.69;100.00
57885;BME280;43703;51.060;-0.086;2024-02-16T03:00:04;99288.72;;;12.78;100.00
57885;BME280;43703;51.060;-0.086;2024-02-16T03:02:27;99289.92;;;12.75;100.00
57885;BME280;43703;51.060;-0.086;2024-02-16T03:04:53;99288.25;;;12.36;100.00
57885;BME280;43703;51.060;-0.086;2024-02-16T03:07:19;99289.59;;;12.71;100.00
57885;BME280;43703;51.060;-0.086;2024-02-16T03:09:44;99293.33;;;12.83;100.00
57885;BME280;43703;51.060;-0.086;2024-02-16T03:12:10;99294.77;;;12.94;100.00
57885;BME280;43703;51.060;-0.086;2024-02-16T03:14:37;99290.87;;;12.70;100.00
57885;BME280;43703;51.060;-0.086;2024-02-16T03:17:01;99293.09;;;12.99;100.00
57885;BME280;43703;51.060;-0.086;2024-02-16T03:19:26;99294.15;;;12.88;100.00
57885;BME280;43703;51.060;-0.086;2024-02-16T03:21:52;99293.16;;;13.31;100.00
57885;BME280;43703;51.060;-0.086;2024-02-16T03:24:17;99291.85;;;12.78;100.00
57885;BME280;43703;51.060;-0.086;2024-02-16T03:26:43;99295.63;;;12.83;100.00
57885;BME280;43703;51.060;-0.086;2024-02-16T03:29:09;99302.22;;;12.55;100.00
57885;BME280;43703;51.060;-0.086;2024-02-16T03:31:34;99308.90;;;12.52;100.00
57885;BME280;43703;51.060;-0.086;2024-02-16T03:34:00;99312.02;;;12.83;100.00
57885;BME280;43703;51.060;-0.086;2024-02-16T03:36:25;99317.81;;;13.04;100.00
57885;BME280;43703;51.060;-0.086;2024-02-16T03:38:51;99325.68;;;12.59;100.00
57885;BME280;43703;51.060;-0.086;2024-02-16T03:41:19;99327.87;;;12.65;100.00
57885;BME280;43703;51.060;-0.086;2024-02-16T03:43:42;99335.05;;;12.57;100.00
57885;BME280;43703;51.060;-0.086;2024-02-16T03:46:08;99344.93;;;12.44;100.00
57885;BME280;43703;51.060;-0.086;2024-02-16T03:48:34;99354.13;;;12.73;100.00
57885;BME280;43703;51.060;-0.086;2024-02-16T03:51:01;99358.16;;;12.89;100.00
57885;BME280;43703;51.060;-0.086;2024-02-16T03:53:26;99358.97;;;12.75;100.00
57885;BME280;43703;51.060;-0.086;2024-02-16T03:55:53;99355.74;;;12.66;100.00
57885;BME280;43703;51.060;-0.086;2024-02-16T03:58:17;99372.16;;;12.48;100.00
57885;BME280;43703;51.060;-0.086;2024-02-16T04:00:43;99372.99;;;12.28;100.00
57885;BME280;43703;51.060;-0.086;2024-02-16T04:03:09;99374.96;;;12.46;100.00
57885;BME280;43703;51.060;-0.086;2024-02-16T04:05:34;99376.10;;;12.39;100.00
57885;BME280;43703;51.060;-0.086;2024-02-16T04:08:00;99379.28;;;12.62;100.00
57885;BME280;43703;51.060;-0.086;2024-02-16T04:10:26;99378.20;;;12.63;100.00
57885;BME280;43703;51.060;-0.086;2024-02-16T04:12:52;99385.31;;;12.39;100.00
57885;BME280;43703;51.060;-0.086;2024-02-16T04:15:18;99380.99;;;12.49;100.00
57885;BME280;43703;51.060;-0.086;2024-02-16T04:17:43;99368.31;;;12.84;100.00
57885;BME280;43703;51.060;-0.086;2024-02-16T04:20:11;99364.17;;;12.60;100.00
57885;BME280;43703;51.060;-0.086;2024-02-16T04:22:35;99370.84;;;12.13;100.00
57885;BME280;43703;51.060;-0.086;2024-02-16T04:25:00;99371.70;;;12.37;100.00
57885;BME280;43703;51.060;-0.086;2024-02-16T04:27:26;99381.97;;;12.44;100.00
57885;BME280;43703;51.060;-0.086;2024-02-16T04:29:52;99391.27;;;12.34;100.00
57885;BME280;43703;51.060;-0.086;2024-02-16T04:32:18;99394.21;;;12.80;100.00
57885;BME280;43703;51.060;-0.086;2024-02-16T04:34:44;99398.02;;;12.60;100.00
57885;BME280;43703;51.060;-0.086;2024-02-16T04:37:10;99409.21;;;12.72;100.00
57885;BME280;43703;51.060;-0.086;2024-02-16T04:39:36;99422.09;;;12.61;100.00
57885;BME280;43703;51.060;-0.086;2024-02-16T04:42:04;99427.30;;;12.38;100.00
57885;BME280;43703;51.060;-0.086;2024-02-16T04:44:27;99434.81;;;12.69;100.00
57885;BME280;43703;51.060;-0.086;2024-02-16T04:46:53;99443.15;;;12.84;100.00
57885;BME280;43703;51.060;-0.086;2024-02-16T04:49:18;99449.17;;;12.49;100.00
57885;BME280;43703;51.060;-0.086;2024-02-16T04:51:44;99454.32;;;12.66;100.00
57885;BME280;43703;51.060;-0.086;2024-02-16T04:54:10;99459.09;;;12.44;100.00
57885;BME280;43703;51.060;-0.086;2024-02-16T04:56:36;99458.17;;;12.57;100.00
57885;BME280;43703;51.060;-0.086;2024-02-16T04:59:02;99455.78;;;12.52;100.00
57885;BME280;43703;51.060;-0.086;2024-02-16T05:01:27;99462.02;;;12.63;100.00
57885;BME280;43703;51.060;-0.086;2024-02-16T05:03:54;99467.02;;;12.13;100.00
57885;BME280;43703;51.060;-0.086;2024-02-16T05:06:19;99468.29;;;12.48;100.00
57885;BME280;43703;51.060;-0.086;2024-02-16T05:08:50;99474.17;;;12.07;100.00
57885;BME280;43703;51.060;-0.086;2024-02-16T05:11:16;99483.44;;;12.38;100.00
57885;BME280;43703;51.060;-0.086;2024-02-16T05:13:36;99483.94;;;12.39;100.00
57885;BME280;43703;51.060;-0.086;2024-02-16T05:16:08;99492.77;;;12.38;100.00
57885;BME280;43703;51.060;-0.086;2024-02-16T05:18:28;99504.43;;;12.16;100.00
57885;BME280;43703;51.060;-0.086;2024-02-16T05:20:54;99509.87;;;12.15;100.00
57885;BME280;43703;51.060;-0.086;2024-02-16T05:23:20;99510.64;;;12.05;100.00
57885;BME280;43703;51.060;-0.086;2024-02-16T05:25:46;99511.53;;;12.49;100.00
57885;BME280;43703;51.060;-0.086;2024-02-16T05:28:15;99516.83;;;12.56;100.00
57885;BME280;43703;51.060;-0.086;2024-02-16T05:30:37;99517.87;;;12.16;100.00
57885;BME280;43703;51.060;-0.086;2024-02-16T05:33:03;99522.07;;;12.63;100.00
57885;BME280;43703;51.060;-0.086;2024-02-16T05:35:29;99525.51;;;12.87;100.00
57885;BME280;43703;51.060;-0.086;2024-02-16T05:37:55;99536.76;;;12.33;100.00
57885;BME280;43703;51.060;-0.086;2024-02-16T05:40:21;99548.10;;;12.54;100.00
57885;BME280;43703;51.060;-0.086;2024-02-16T05:42:47;99555.40;;;12.57;100.00
57885;BME280;43703;51.060;-0.086;2024-02-16T05:45:12;99560.96;;;12.40;100.00
57885;BME280;43703;51.060;-0.086;2024-02-16T05:47:38;99564.56;;;12.24;100.00
57885;BME280;43703;51.060;-0.086;2024-02-16T05:50:04;99572.75;;;12.14;100.00
57885;BME280;43703;51.060;-0.086;2024-02-16T05:52:30;99576.10;;;12.14;100.00
57885;BME280;43703;51.060;-0.086;2024-02-16T05:54:55;99579.68;;;11.77;100.00
57885;BME280;43703;51.060;-0.086;2024-02-16T05:57:21;99585.39;;;12.02;100.00
57885;BME280;43703;51.060;-0.086;2024-02-16T05:59:47;99591.67;;;11.74;100.00
57885;BME280;43703;51.060;-0.086;2024-02-16T06:02:13;99605.35;;;11.81;100.00
57885;BME280;43703;51.060;-0.086;2024-02-16T06:04:39;99611.98;;;11.46;100.00
57885;BME280;43703;51.060;-0.086;2024-02-16T06:07:05;99608.25;;;11.71;100.00
57885;BME280;43703;51.060;-0.086;2024-02-16T06:09:31;99608.63;;;11.82;100.00
57885;BME280;43703;51.060;-0.086;2024-02-16T06:11:56;99609.73;;;11.39;100.00
57885;BME280;43703;51.060;-0.086;2024-02-16T06:14:22;99596.80;;;11.74;100.00
57885;BME280;43703;51.060;-0.086;2024-02-16T06:16:48;99597.36;;;11.58;100.00
57885;BME280;43703;51.060;-0.086;2024-02-16T06:19:14;99609.47;;;11.32;100.00
57885;BME280;43703;51.060;-0.086;2024-02-16T06:21:39;99620.50;;;11.80;100.00
57885;BME280;43703;51.060;-0.086;2024-02-16T06:24:05;99630.21;;;11.43;100.00
57885;BME280;43703;51.060;-0.086;2024-02-16T06:26:31;99633.20;;;11.44;100.00
57885;BME280;43703;51.060;-0.086;2024-02-16T06:28:57;99638.01;;;11.38;100.00
57885;BME280;43703;51.060;-0.086;2024-02-16T06:31:23;99646.01;;;10.98;100.00
57885;BME280;43703;51.060;-0.086;2024-02-16T06:33:49;99650.48;;;11.05;100.00
57885;BME280;43703;51.060;-0.086;2024-02-16T06:36:14;99659.03;;;11.31;100.00
57885;BME280;43703;51.060;-0.086;2024-02-16T06:38:40;99667.97;;;11.00;100.00
57885;BME280;43703;51.060;-0.086;2024-02-16T06:41:07;99672.55;;;11.20;100.00
57885;BME280;43703;51.060;-0.086;2024-02-16T06:43:32;99676.87;;;10.88;100.00
57885;BME280;43703;51.060;-0.086;2024-02-16T06:45:58;99673.65;;;11.14;100.00
57885;BME280;43703;51.060;-0.086;2024-02-16T06:48:23;99678.25;;;10.88;100.00
57885;BME280;43703;51.060;-0.086;2024-02-16T06:50:49;99683.85;;;10.57;100.00
57885;BME280;43703;51.060;-0.086;2024-02-16T06:53:20;99691.76;;;10.72;100.00
57885;BME280;43703;51.060;-0.086;2024-02-16T06:55:41;99695.08;;;11.48;100.00
57885;BME280;43703;51.060;-0.086;2024-02-16T06:58:07;99699.04;;;11.06;100.00
57885;BME280;43703;51.060;-0.086;2024-02-16T07:00:33;99702.75;;;11.05;100.00
57885;BME280;43703;51.060;-0.086;2024-02-16T07:02:58;99711.05;;;10.84;100.00
57885;BME280;43703;51.060;-0.086;2024-02-16T07:05:24;99715.52;;;11.17;100.00
57885;BME280;43703;51.060;-0.086;2024-02-16T07:07:50;99722.55;;;10.62;100.00
57885;BME280;43703;51.060;-0.086;2024-02-16T07:10:16;99724.14;;;11.17;100.00
57885;BME280;43703;51.060;-0.086;2024-02-16T07:12:42;99737.26;;;11.04;100.00
57885;BME280;43703;51.060;-0.086;2024-02-16T07:15:08;99742.72;;;11.02;100.00
57885;BME280;43703;51.060;-0.086;2024-02-16T07:17:33;99747.99;;;10.74;100.00
57885;BME280;43703;51.060;-0.086;2024-02-16T07:19:59;99754.01;;;10.86;100.00
57885;BME280;43703;51.060;-0.086;2024-02-16T07:22:25;99757.43;;;11.24;100.00
57885;BME280;43703;51.060;-0.086;2024-02-16T07:24:51;99760.07;;;10.89;100.00
57885;BME280;43703;51.060;-0.086;2024-02-16T07:27:17;99762.51;;;10.67;100.00
57885;BME280;43703;51.060;-0.086;2024-02-16T07:29:43;99764.96;;;10.93;100.00
57885;BME280;43703;51.060;-0.086;2024-02-16T07:32:08;99772.33;;;10.77;100.00
57885;BME280;43703;51.060;-0.086;2024-02-16T07:34:36;99784.24;;;10.50;100.00
57885;BME280;43703;51.060;-0.086;2024-02-16T07:37:05;99788.42;;;10.55;100.00
57885;BME280;43703;51.060;-0.086;2024-02-16T07:39:26;99797.30;;;10.58;100.00
57885;BME280;43703;51.060;-0.086;2024-02-16T07:41:52;99802.56;;;10.41;100.00
57885;BME280;43703;51.060;-0.086;2024-02-16T07:44:17;99808.09;;;10.85;100.00
57885;BME280;43703;51.060;-0.086;2024-02-16T07:46:43;99815.01;;;10.36;100.00
57885;BME280;43703;51.060;-0.086;2024-02-16T07:49:10;99821.27;;;10.38;100.00
57885;BME280;43703;51.060;-0.086;2024-02-16T07:51:35;99823.98;;;10.39;100.00
57885;BME280;43703;51.060;-0.086;2024-02-16T07:54:01;99824.45;;;10.54;100.00
57885;BME280;43703;51.060;-0.086;2024-02-16T07:56:27;99830.22;;;10.36;100.00
57885;BME280;43703;51.060;-0.086;2024-02-16T07:58:53;99835.49;;;10.35;100.00
57885;BME280;43703;51.060;-0.086;2024-02-16T08:01:18;99842.66;;;10.21;100.00
57885;BME280;43703;51.060;-0.086;2024-02-16T08:03:44;99846.63;;;10.10;100.00
57885;BME280;43703;51.060;-0.086;2024-02-16T08:06:10;99849.48;;;10.23;100.00
57885;BME280;43703;51.060;-0.086;2024-02-16T08:08:36;99853.98;;;9.81;100.00
57885;BME280;43703;51.060;-0.086;2024-02-16T08:11:02;99860.94;;;9.95;100.00
57885;BME280;43703;51.060;-0.086;2024-02-16T08:13:27;99864.95;;;10.10;100.00
57885;BME280;43703;51.060;-0.086;2024-02-16T08:15:53;99872.58;;;10.19;100.00
57885;BME280;43703;51.060;-0.086;2024-02-16T08:18:19;99879.28;;;10.29;100.00
57885;BME280;43703;51.060;-0.086;2024-02-16T08:20:45;99886.19;;;10.12;100.00
57885;BME280;43703;51.060;-0.086;2024-02-16T08:23:11;99898.65;;;10.37;100.00
57885;BME280;43703;51.060;-0.086;2024-02-16T08:25:37;99903.98;;;10.28;100.00
57885;BME280;43703;51.060;-0.086;2024-02-16T08:28:03;99905.33;;;10.25;100.00
57885;BME280;43703;51.060;-0.086;2024-02-16T08:30:28;99910.81;;;10.25;100.00
57885;BME280;43703;51.060;-0.086;2024-02-16T08:32:54;99911.26;;;10.09;100.00
57885;BME280;43703;51.060;-0.086;2024-02-16T08:35:20;99917.53;;;10.09;100.00
57885;BME280;43703;51.060;-0.086;2024-02-16T08:37:46;99924.67;;;10.00;100.00
57885;BME280;43703;51.060;-0.086;2024-02-16T08:40:12;99933.38;;;10.22;100.00
57885;BME280;43703;51.060;-0.086;2024-02-16T08:42:37;99943.04;;;10.34;100.00
57885;BME280;43703;51.060;-0.086;2024-02-16T08:45:04;99946.29;;;10.39;100.00
57885;BME280;43703;51.060;-0.086;2024-02-16T08:47:30;99944.09;;;10.41;100.00
57885;BME280;43703;51.060;-0.086;2024-02-16T08:49:55;99943.14;;;10.53;100.00
57885;BME280;43703;51.060;-0.086;2024-02-16T08:52:21;99952.69;;;10.37;100.00
57885;BME280;43703;51.060;-0.086;2024-02-16T08:54:47;99960.96;;;10.64;100.00
57885;BME280;43703;51.060;-0.086;2024-02-16T08:57:13;99966.99;;;10.97;100.00
57885;BME280;43703;51.060;-0.086;2024-02-16T08:59:38;99974.97;;;12.09;100.00
57885;BME280;43703;51.060;-0.086;2024-02-16T09:02:04;99984.28;;;13.19;100.00
57885;BME280;43703;51.060;-0.086;2024-02-16T09:04:29;99988.20;;;13.50;100.00
57885;BME280;43703;51.060;-0.086;2024-02-16T09:06:55;99996.86;;;13.98;100.00
57885;BME280;43703;51.060;-0.086;2024-02-16T09:09:20;100008.01;;;14.94;100.00
57885;BME280;43703;51.060;-0.086;2024-02-16T09:11:51;99999.01;;;14.75;100.00
57885;BME280;43703;51.060;-0.086;2024-02-16T09:14:11;100005.57;;;14.95;100.00
57885;BME280;43703;51.060;-0.086;2024-02-16T09:16:39;100005.84;;;15.08;100.00
57885;BME280;43703;51.060;-0.086;2024-02-16T09:19:03;100019.73;;;15.24;100.00
57885;BME280;43703;51.060;-0.086;2024-02-16T09:21:28;100020.73;;;15.33;100.00
57885;BME280;43703;51.060;-0.086;2024-02-16T09:23:54;100024.61;;;15.29;100.00
57885;BME280;43703;51.060;-0.086;2024-02-16T09:26:20;100027.92;;;15.50;100.00
57885;BME280;43703;51.060;-0.086;2024-02-16T09:28:46;100026.55;;;15.67;100.00
57885;BME280;43703;51.060;-0.086;2024-02-16T09:31:14;100024.46;;;15.50;100.00
57885;BME280;43703;51.060;-0.086;2024-02-16T09:33:39;100032.03;;;16.17;100.00
57885;BME280;43703;51.060;-0.086;2024-02-16T09:36:03;100030.75;;;16.40;100.00
57885;BME280;43703;51.060;-0.086;2024-02-16T09:38:29;100034.46;;;16.43;100.00
57885;BME280;43703;51.060;-0.086;2024-02-16T09:40:55;100042.26;;;17.20;100.00
57885;BME280;43703;51.060;-0.086;2024-02-16T09:43:25;100049.70;;;17.95;100.00
57885;BME280;43703;51.060;-0.086;2024-02-16T09:45:46;100050.61;;;18.45;98.05
57885;BME280;43703;51.060;-0.086;2024-02-16T09:48:12;100054.19;;;18.89;91.95
57885;BME280;43703;51.060;-0.086;2024-02-16T09:50:37;100055.61;;;18.14;87.29
57885;BME280;43703;51.060;-0.086;2024-02-16T09:53:04;100060.45;;;17.83;93.74
57885;BME280;43703;51.060;-0.086;2024-02-16T09:55:32;100057.67;;;17.85;82.63
57885;BME280;43703;51.060;-0.086;2024-02-16T09:57:59;100064.12;;;17.59;85.99
57885;BME280;43703;51.060;-0.086;2024-02-16T10:00:21;100060.38;;;17.20;75.92
57885;BME280;43703;51.060;-0.086;2024-02-16T10:02:47;100071.44;;;17.03;81.44
57885;BME280;43703;51.060;-0.086;2024-02-16T10:05:14;100084.03;;;17.32;79.75
57885;BME280;43703;51.060;-0.086;2024-02-16T10:07:38;100088.83;;;17.98;83.20
57885;BME280;43703;51.060;-0.086;2024-02-16T10:10:04;100095.83;;;17.51;78.49
57885;BME280;43703;51.060;-0.086;2024-02-16T10:12:29;100100.76;;;17.32;78.10
57885;BME280;43703;51.060;-0.086;2024-02-16T10:14:55;100102.98;;;17.32;77.95
57885;BME280;43703;51.060;-0.086;2024-02-16T10:17:21;100112.03;;;16.91;84.37
57885;BME280;43703;51.060;-0.086;2024-02-16T10:19:55;100110.67;;;16.85;83.79
57885;BME280;43703;51.060;-0.086;2024-02-16T10:22:12;100112.20;;;16.77;83.92
57885;BME280;43703;51.060;-0.086;2024-02-16T10:24:39;100119.24;;;17.01;83.56
57885;BME280;43703;51.060;-0.086;2024-02-16T10:27:04;100116.50;;;17.41;84.83
57885;BME280;43703;51.060;-0.086;2024-02-16T10:29:30;100119.13;;;16.70;80.64
57885;BME280;43703;51.060;-0.086;2024-02-16T10:31:55;100128.88;;;16.43;81.08
57885;BME280;43703;51.060;-0.086;2024-02-16T10:34:23;100130.58;;;16.03;84.82
57885;BME280;43703;51.060;-0.086;2024-02-16T10:36:47;100133.21;;;15.82;88.46
57885;BME280;43703;51.060;-0.086;2024-02-16T10:39:13;100131.46;;;16.11;86.84
57885;BME280;43703;51.060;-0.086;2024-02-16T10:41:40;100139.92;;;16.68;84.16
57885;BME280;43703;51.060;-0.086;2024-02-16T10:44:11;100142.74;;;16.75;81.96
57885;BME280;43703;51.060;-0.086;2024-02-16T10:46:33;100142.99;;;16.84;79.78
57885;BME280;43703;51.060;-0.086;2024-02-16T10:48:56;100153.89;;;16.51;84.03
57885;BME280;43703;51.060;-0.086;2024-02-16T10:51:29;100163.51;;;16.40;81.96
57885;BME280;43703;51.060;-0.086;2024-02-16T10:53:48;100158.05;;;16.17;81.47
57885;BME280;43703;51.060;-0.086;2024-02-16T10:58:40;100168.75;;;14.91;85.19
57885;BME280;43703;51.060;-0.086;2024-02-16T11:01:18;100167.08;;;14.54;89.72
57885;BME280;43703;51.060;-0.086;2024-02-16T11:03:32;100170.62;;;14.26;89.09
57885;BME280;43703;51.060;-0.086;2024-02-16T11:06:11;100177.22;;;14.30;95.48
57885;BME280;43703;51.060;-0.086;2024-02-16T11:08:30;100178.18;;;14.03;98.31
57885;BME280;43703;51.060;-0.086;2024-02-16T11:10:54;100182.53;;;13.62;100.00
57885;BME280;43703;51.060;-0.086;2024-02-16T11:13:22;100189.34;;;13.91;100.00
57885;BME280;43703;51.060;-0.086;2024-02-16T11:15:40;100190.83;;;13.77;100.00
57885;BME280;43703;51.060;-0.086;2024-02-16T11:18:10;100194.56;;;13.71;100.00
57885;BME280;43703;51.060;-0.086;2024-02-16T11:20:39;100194.05;;;13.91;99.69
57885;BME280;43703;51.060;-0.086;2024-02-16T11:23:05;100202.90;;;13.52;100.00
57885;BME280;43703;51.060;-0.086;2024-02-16T11:25:35;100209.32;;;13.42;100.00
57885;BME280;43703;51.060;-0.086;2024-02-16T11:27:53;100212.33;;;13.48;98.97
57885;BME280;43703;51.060;-0.086;2024-02-16T11:30:15;100207.31;;;13.14;100.00
57885;BME280;43703;51.060;-0.086;2024-02-16T11:32:43;100215.86;;;13.36;100.00
57885;BME280;43703;51.060;-0.086;2024-02-16T11:35:06;100218.45;;;13.11;100.00
57885;BME280;43703;51.060;-0.086;2024-02-16T11:37:40;100223.97;;;13.17;100.00
57885;BME280;43703;51.060;-0.086;2024-02-16T11:40:03;100222.98;;;12.81;100.00
57885;BME280;43703;51.060;-0.086;2024-02-16T11:42:24;100233.08;;;12.69;100.00
57885;BME280;43703;51.060;-0.086;2024-02-16T11:44:52;100232.54;;;12.59;100.00
57885;BME280;43703;51.060;-0.086;2024-02-16T11:47:20;100231.40;;;12.87;100.00
57885;BME280;43703;51.060;-0.086;2024-02-16T11:49:46;100230.26;;;13.26;100.00
57885;BME280;43703;51.060;-0.086;2024-02-16T11:52:08;100230.72;;;14.15;100.00
57885;BME280;43703;51.060;-0.086;2024-02-16T11:54:32;100227.17;;;14.54;95.95
57885;BME280;43703;51.060;-0.086;2024-02-16T11:57:03;100232.99;;;15.47;91.08
57885;BME280;43703;51.060;-0.086;2024-02-16T11:59:25;100229.44;;;15.70;86.57
57885;BME280;43703;51.060;-0.086;2024-02-16T12:01:53;100229.72;;;16.02;79.97
57885;BME280;43703;51.060;-0.086;2024-02-16T12:04:22;100236.74;;;15.30;84.61
57885;BME280;43703;51.060;-0.086;2024-02-16T12:06:43;100233.77;;;16.15;84.89
57885;BME280;43703;51.060;-0.086;2024-02-16T12:09:07;100237.26;;;16.27;80.89
57885;BME280;43703;51.060;-0.086;2024-02-16T12:11:33;100237.18;;;16.51;80.15
57885;BME280;43703;51.060;-0.086;2024-02-16T12:14:00;100241.01;;;16.34;81.94
57885;BME280;43703;51.060;-0.086;2024-02-16T12:16:27;100239.38;;;16.15;77.21
57885;BME280;43703;51.060;-0.086;2024-02-16T12:18:51;100236.07;;;16.20;76.91
57885;BME280;43703;51.060;-0.086;2024-02-16T12:21:18;100238.77;;;16.35;78.14
57885;BME280;43703;51.060;-0.086;2024-02-16T12:23:46;100242.29;;;16.00;80.49
57885;BME280;43703;51.060;-0.086;2024-02-16T12:26:08;100244.95;;;15.88;79.41
57885;BME280;43703;51.060;-0.086;2024-02-16T12:28:33;100245.08;;;15.99;82.69
57885;BME280;43703;51.060;-0.086;2024-02-16T12:31:02;100243.67;;;16.05;77.91